Weather Data

Pearl Creek Farm: 8878 N Farm Road 75, Walnut Grove MO 65770

<== Previous Day (Sunday 24 Aug 2008) | Next Day (Tuesday 26 Aug 2008) ==>

Summary Precipitation Data For Monday 25 August 2008

ElementValueUnits
Precipitation0"
Notes(none)
SourceSpringfield-Branson National Airport (SGF)

Summary Temperature Data For Monday 25 August 2008

ElementValueUnits
High Temperature84 oF
Low Temperature60 oF
Average Temperature71 oF
High Humidity90 %
Low Humidity37 %
Average Humidity64 %
SourceSpringfield-Branson National Airport (SGF)

Detail Temperature Data For Monday 25 August 2008

Date / TimeTemp (F)RH (%)Dew Pt (F)Report Date / TimeSource
2008-08-25 00:52:00 63 81 57.0 2017-12-29 19:14:24.89625 Springfield-Branson National Airport (SGF)
2008-08-25 01:52:00 63 81 57.0 2017-12-29 19:14:24.89625 Springfield-Branson National Airport (SGF)
2008-08-25 02:52:00 61 87 57.0 2017-12-29 19:14:24.89625 Springfield-Branson National Airport (SGF)
2008-08-25 03:52:00 61 87 57.0 2017-12-29 19:14:24.89625 Springfield-Branson National Airport (SGF)
2008-08-25 04:52:00 61 87 57.0 2017-12-29 19:14:24.89625 Springfield-Branson National Airport (SGF)
2008-08-25 05:52:00 60 90 57.0 2017-12-29 19:14:24.89625 Springfield-Branson National Airport (SGF)
2008-08-25 06:52:00 63 81 57.0 2017-12-29 19:14:24.89625 Springfield-Branson National Airport (SGF)
2008-08-25 07:52:00 67 73 58.0 2017-12-29 19:14:24.89625 Springfield-Branson National Airport (SGF)
2008-08-25 08:52:00 72 66 60.0 2017-12-29 19:14:24.89625 Springfield-Branson National Airport (SGF)
2008-08-25 09:52:00 77 58 61.0 2017-12-29 19:14:24.89625 Springfield-Branson National Airport (SGF)
2008-08-25 10:52:00 80 51 60.0 2017-12-29 19:14:24.89625 Springfield-Branson National Airport (SGF)
2008-08-25 11:52:00 83 40 56.0 2017-12-29 19:14:24.89625 Springfield-Branson National Airport (SGF)
2008-08-25 12:52:00 83 38 55.0 2017-12-29 19:14:24.89625 Springfield-Branson National Airport (SGF)
2008-08-25 13:52:00 84 38 56.0 2017-12-29 19:14:24.89625 Springfield-Branson National Airport (SGF)
2008-08-25 14:52:00 83 37 54.0 2017-12-29 19:14:24.89625 Springfield-Branson National Airport (SGF)
2008-08-25 15:52:00 83 38 55.0 2017-12-29 19:14:24.89625 Springfield-Branson National Airport (SGF)
2008-08-25 16:52:00 81 41 55.0 2017-12-29 19:14:24.89625 Springfield-Branson National Airport (SGF)
2008-08-25 17:52:00 79 47 57.0 2017-12-29 19:14:24.89625 Springfield-Branson National Airport (SGF)
2008-08-25 18:52:00 74 54 56.0 2017-12-29 19:14:24.89625 Springfield-Branson National Airport (SGF)
2008-08-25 19:52:00 71 61 57.0 2017-12-29 19:14:24.89625 Springfield-Branson National Airport (SGF)
2008-08-25 20:52:00 69 68 58.0 2017-12-29 19:14:24.89625 Springfield-Branson National Airport (SGF)
2008-08-25 21:52:00 67 73 58.0 2017-12-29 19:14:24.89625 Springfield-Branson National Airport (SGF)
2008-08-25 22:52:00 65 76 57.0 2017-12-29 19:14:24.89625 Springfield-Branson National Airport (SGF)
2008-08-25 23:52:00 63 81 57.0 2017-12-29 19:14:24.89625 Springfield-Branson National Airport (SGF)

A total of 24 rows are displayed.